sensor_id;sensor_type;location;lat;lon;timestamp;P1;durP1;ratioP1;P2;durP2;ratioP2
33148;SDS011;19506;51.040;3.856;2023-05-10T14:31:12;17.17;;;5.75;;
33148;SDS011;19506;51.040;3.856;2023-05-10T14:33:39;30.77;;;6.25;;
33148;SDS011;19506;51.040;3.856;2023-05-10T14:36:05;19.75;;;6.72;;
33148;SDS011;19506;51.040;3.856;2023-05-10T14:38:31;37.30;;;6.72;;
33148;SDS011;19506;51.040;3.856;2023-05-10T14:40:56;23.15;;;5.88;;
33148;SDS011;19506;51.040;3.856;2023-05-10T14:43:22;21.67;;;6.05;;
33148;SDS011;19506;51.040;3.856;2023-05-10T14:45:48;37.13;;;6.80;;
33148;SDS011;19506;51.040;3.856;2023-05-10T14:48:14;12.85;;;5.68;;
33148;SDS011;19506;51.040;3.856;2023-05-10T14:50:42;40.72;;;7.80;;
33148;SDS011;19506;51.040;3.856;2023-05-10T14:53:08;29.73;;;7.22;;
33148;SDS011;19506;51.040;3.856;2023-05-10T14:55:34;18.10;;;5.90;;
33148;SDS011;19506;51.040;3.856;2023-05-10T14:58:00;15.95;;;6.15;;
33148;SDS011;19506;51.040;3.856;2023-05-10T15:00:27;13.63;;;5.35;;
33148;SDS011;19506;51.040;3.856;2023-05-10T15:02:54;14.68;;;5.50;;
33148;SDS011;19506;51.040;3.856;2023-05-10T15:05:19;18.88;;;5.88;;
33148;SDS011;19506;51.040;3.856;2023-05-10T15:07:45;21.13;;;6.63;;
33148;SDS011;19506;51.040;3.856;2023-05-10T15:10:11;14.73;;;6.25;;
33148;SDS011;19506;51.040;3.856;2023-05-10T15:12:37;30.30;;;8.85;;
33148;SDS011;19506;51.040;3.856;2023-05-10T15:15:03;36.25;;;10.82;;
33148;SDS011;19506;51.040;3.856;2023-05-10T15:17:30;23.85;;;10.05;;
33148;SDS011;19506;51.040;3.856;2023-05-10T15:19:55;31.15;;;12.65;;
33148;SDS011;19506;51.040;3.856;2023-05-10T15:22:21;16.25;;;9.90;;
33148;SDS011;19506;51.040;3.856;2023-05-10T15:24:47;19.95;;;11.10;;
33148;SDS011;19506;51.040;3.856;2023-05-10T15:27:12;21.90;;;10.80;;
33148;SDS011;19506;51.040;3.856;2023-05-10T15:29:38;26.48;;;13.70;;
33148;SDS011;19506;51.040;3.856;2023-05-10T15:32:04;23.00;;;11.52;;
33148;SDS011;19506;51.040;3.856;2023-05-10T15:34:29;28.58;;;11.98;;
33148;SDS011;19506;51.040;3.856;2023-05-10T15:36:55;24.45;;;11.50;;
33148;SDS011;19506;51.040;3.856;2023-05-10T15:39:21;24.50;;;11.73;;
33148;SDS011;19506;51.040;3.856;2023-05-10T15:41:46;21.52;;;10.98;;
33148;SDS011;19506;51.040;3.856;2023-05-10T15:44:12;22.40;;;11.98;;
33148;SDS011;19506;51.040;3.856;2023-05-10T15:46:38;21.35;;;10.73;;
33148;SDS011;19506;51.040;3.856;2023-05-10T15:49:04;19.65;;;10.05;;
33148;SDS011;19506;51.040;3.856;2023-05-10T15:51:30;23.98;;;10.15;;
33148;SDS011;19506;51.040;3.856;2023-05-10T15:53:57;33.55;;;10.93;;
33148;SDS011;19506;51.040;3.856;2023-05-10T15:56:23;22.48;;;9.70;;
33148;SDS011;19506;51.040;3.856;2023-05-10T15:58:49;21.52;;;10.07;;
33148;SDS011;19506;51.040;3.856;2023-05-10T16:01:15;18.95;;;9.63;;
33148;SDS011;19506;51.040;3.856;2023-05-10T16:03:40;24.02;;;11.05;;
33148;SDS011;19506;51.040;3.856;2023-05-10T16:06:07;24.45;;;9.90;;
33148;SDS011;19506;51.040;3.856;2023-05-10T16:08:32;20.95;;;10.73;;
33148;SDS011;19506;51.040;3.856;2023-05-10T16:10:58;21.60;;;10.50;;
33148;SDS011;19506;51.040;3.856;2023-05-10T16:13:24;28.60;;;10.30;;
33148;SDS011;19506;51.040;3.856;2023-05-10T16:15:50;26.63;;;10.05;;
33148;SDS011;19506;51.040;3.856;2023-05-10T16:18:17;27.27;;;11.38;;
33148;SDS011;19506;51.040;3.856;2023-05-10T16:20:43;18.60;;;9.73;;
33148;SDS011;19506;51.040;3.856;2023-05-10T16:23:08;20.25;;;10.27;;
33148;SDS011;19506;51.040;3.856;2023-05-10T16:25:35;24.95;;;11.10;;
33148;SDS011;19506;51.040;3.856;2023-05-10T16:28:00;30.10;;;12.70;;
33148;SDS011;19506;51.040;3.856;2023-05-10T16:30:26;29.98;;;12.27;;
33148;SDS011;19506;51.040;3.856;2023-05-10T16:32:54;34.50;;;12.65;;
33148;SDS011;19506;51.040;3.856;2023-05-10T16:35:20;32.53;;;13.75;;
33148;SDS011;19506;51.040;3.856;2023-05-10T16:37:47;37.78;;;15.55;;
33148;SDS011;19506;51.040;3.856;2023-05-10T16:40:14;41.90;;;20.42;;
33148;SDS011;19506;51.040;3.856;2023-05-10T16:42:39;25.50;;;13.15;;
33148;SDS011;19506;51.040;3.856;2023-05-10T16:45:05;35.35;;;17.88;;
33148;SDS011;19506;51.040;3.856;2023-05-10T16:47:32;46.10;;;24.52;;
33148;SDS011;19506;51.040;3.856;2023-05-10T16:49:59;45.95;;;24.20;;
33148;SDS011;19506;51.040;3.856;2023-05-10T16:52:26;50.33;;;24.23;;
33148;SDS011;19506;51.040;3.856;2023-05-10T16:54:55;51.55;;;27.77;;
33148;SDS011;19506;51.040;3.856;2023-05-10T16:57:21;41.03;;;22.60;;
33148;SDS011;19506;51.040;3.856;2023-05-10T16:59:46;50.58;;;24.75;;
33148;SDS011;19506;51.040;3.856;2023-05-10T17:02:13;41.90;;;23.13;;
33148;SDS011;19506;51.040;3.856;2023-05-10T17:04:38;49.47;;;23.15;;
33148;SDS011;19506;51.040;3.856;2023-05-10T17:07:04;39.75;;;19.45;;
33148;SDS011;19506;51.040;3.856;2023-05-10T17:09:30;30.48;;;12.00;;
33148;SDS011;19506;51.040;3.856;2023-05-10T17:11:56;22.05;;;10.05;;
33148;SDS011;19506;51.040;3.856;2023-05-10T17:14:21;28.85;;;10.13;;
33148;SDS011;19506;51.040;3.856;2023-05-10T17:16:47;19.40;;;8.75;;
33148;SDS011;19506;51.040;3.856;2023-05-10T17:19:13;25.73;;;8.90;;
33148;SDS011;19506;51.040;3.856;2023-05-10T17:21:39;30.95;;;10.23;;
33148;SDS011;19506;51.040;3.856;2023-05-10T17:24:05;22.25;;;8.95;;
33148;SDS011;19506;51.040;3.856;2023-05-10T17:26:30;34.38;;;8.70;;
33148;SDS011;19506;51.040;3.856;2023-05-10T17:28:57;31.65;;;8.63;;
33148;SDS011;19506;51.040;3.856;2023-05-10T17:31:22;30.02;;;8.75;;
33148;SDS011;19506;51.040;3.856;2023-05-10T17:33:48;30.05;;;9.65;;
33148;SDS011;19506;51.040;3.856;2023-05-10T17:36:14;30.27;;;8.52;;
33148;SDS011;19506;51.040;3.856;2023-05-10T17:38:39;28.83;;;9.35;;
33148;SDS011;19506;51.040;3.856;2023-05-10T17:41:06;33.67;;;9.23;;
33148;SDS011;19506;51.040;3.856;2023-05-10T17:43:32;26.20;;;9.77;;
33148;SDS011;19506;51.040;3.856;2023-05-10T17:45:57;23.70;;;9.35;;
33148;SDS011;19506;51.040;3.856;2023-05-10T17:48:23;27.40;;;9.02;;
33148;SDS011;19506;51.040;3.856;2023-05-10T17:50:49;28.60;;;9.00;;
33148;SDS011;19506;51.040;3.856;2023-05-10T17:53:15;36.30;;;9.13;;
33148;SDS011;19506;51.040;3.856;2023-05-10T17:55:41;20.40;;;8.45;;
33148;SDS011;19506;51.040;3.856;2023-05-10T17:58:09;24.13;;;8.85;;
33148;SDS011;19506;51.040;3.856;2023-05-10T18:00:35;25.75;;;9.15;;
33148;SDS011;19506;51.040;3.856;2023-05-10T18:03:02;27.63;;;8.55;;
33148;SDS011;19506;51.040;3.856;2023-05-10T18:05:28;28.75;;;8.18;;
33148;SDS011;19506;51.040;3.856;2023-05-10T18:07:54;27.95;;;8.23;;
33148;SDS011;19506;51.040;3.856;2023-05-10T18:10:20;15.70;;;7.60;;
33148;SDS011;19506;51.040;3.856;2023-05-10T18:12:47;15.25;;;7.35;;
33148;SDS011;19506;51.040;3.856;2023-05-10T18:15:14;17.23;;;7.00;;
33148;SDS011;19506;51.040;3.856;2023-05-10T18:17:40;13.90;;;7.55;;
33148;SDS011;19506;51.040;3.856;2023-05-10T18:20:06;18.67;;;7.38;;
33148;SDS011;19506;51.040;3.856;2023-05-10T18:22:33;11.65;;;6.55;;
33148;SDS011;19506;51.040;3.856;2023-05-10T18:24:59;19.95;;;7.57;;
33148;SDS011;19506;51.040;3.856;2023-05-10T18:27:25;16.90;;;7.55;;
33148;SDS011;19506;51.040;3.856;2023-05-10T18:29:51;19.35;;;7.43;;
33148;SDS011;19506;51.040;3.856;2023-05-10T18:32:16;22.77;;;8.32;;
33148;SDS011;19506;51.040;3.856;2023-05-10T18:34:42;20.92;;;7.47;;
33148;SDS011;19506;51.040;3.856;2023-05-10T18:37:08;23.23;;;8.05;;
33148;SDS011;19506;51.040;3.856;2023-05-10T18:39:37;17.88;;;8.90;;
33148;SDS011;19506;51.040;3.856;2023-05-10T18:42:03;19.30;;;6.30;;
33148;SDS011;19506;51.040;3.856;2023-05-10T18:44:29;20.75;;;6.75;;
33148;SDS011;19506;51.040;3.856;2023-05-10T18:46:55;24.15;;;7.50;;
33148;SDS011;19506;51.040;3.856;2023-05-10T18:49:23;18.25;;;7.13;;
33148;SDS011;19506;51.040;3.856;2023-05-10T18:51:48;22.08;;;7.07;;
33148;SDS011;19506;51.040;3.856;2023-05-10T18:54:14;24.77;;;7.90;;
33148;SDS011;19506;51.040;3.856;2023-05-10T18:56:40;14.05;;;5.50;;
33148;SDS011;19506;51.040;3.856;2023-05-10T18:59:09;18.77;;;7.07;;
33148;SDS011;19506;51.040;3.856;2023-05-10T19:01:35;22.60;;;7.32;;
33148;SDS011;19506;51.040;3.856;2023-05-10T19:04:01;17.73;;;6.88;;
33148;SDS011;19506;51.040;3.856;2023-05-10T19:06:27;15.73;;;6.15;;
33148;SDS011;19506;51.040;3.856;2023-05-10T19:08:52;22.80;;;6.53;;
33148;SDS011;19506;51.040;3.856;2023-05-10T19:11:18;21.77;;;6.85;;
33148;SDS011;19506;51.040;3.856;2023-05-10T19:13:45;17.15;;;6.68;;
33148;SDS011;19506;51.040;3.856;2023-05-10T19:16:12;13.73;;;6.00;;
33148;SDS011;19506;51.040;3.856;2023-05-10T19:18:40;17.00;;;7.65;;
33148;SDS011;19506;51.040;3.856;2023-05-10T19:21:06;15.63;;;5.60;;
33148;SDS011;19506;51.040;3.856;2023-05-10T19:23:34;27.80;;;5.80;;
33148;SDS011;19506;51.040;3.856;2023-05-10T19:26:01;17.75;;;5.43;;
33148;SDS011;19506;51.040;3.856;2023-05-10T19:28:27;20.17;;;5.78;;
33148;SDS011;19506;51.040;3.856;2023-05-10T19:30:53;16.45;;;7.10;;
33148;SDS011;19506;51.040;3.856;2023-05-10T19:33:19;22.63;;;5.93;;
33148;SDS011;19506;51.040;3.856;2023-05-10T19:35:45;18.48;;;6.18;;
33148;SDS011;19506;51.040;3.856;2023-05-10T19:38:11;15.80;;;5.72;;
33148;SDS011;19506;51.040;3.856;2023-05-10T19:40:36;18.70;;;5.97;;
33148;SDS011;19506;51.040;3.856;2023-05-10T19:43:02;12.13;;;5.85;;
33148;SDS011;19506;51.040;3.856;2023-05-10T19:45:28;16.75;;;6.15;;
33148;SDS011;19506;51.040;3.856;2023-05-10T19:47:53;15.35;;;6.28;;
33148;SDS011;19506;51.040;3.856;2023-05-10T19:50:19;19.63;;;5.63;;
33148;SDS011;19506;51.040;3.856;2023-05-10T19:52:45;18.05;;;5.93;;
33148;SDS011;19506;51.040;3.856;2023-05-10T19:55:14;15.88;;;5.88;;
33148;SDS011;19506;51.040;3.856;2023-05-10T19:57:51;14.63;;;4.95;;
33148;SDS011;19506;51.040;3.856;2023-05-10T20:00:17;13.75;;;5.20;;
33148;SDS011;19506;51.040;3.856;2023-05-10T20:02:43;15.50;;;5.40;;
33148;SDS011;19506;51.040;3.856;2023-05-10T20:05:08;11.10;;;5.72;;
33148;SDS011;19506;51.040;3.856;2023-05-10T20:07:34;22.60;;;6.60;;
33148;SDS011;19506;51.040;3.856;2023-05-10T20:10:00;15.93;;;5.53;;
33148;SDS011;19506;51.040;3.856;2023-05-10T20:12:27;15.13;;;4.90;;
33148;SDS011;19506;51.040;3.856;2023-05-10T20:14:52;13.77;;;5.40;;
33148;SDS011;19506;51.040;3.856;2023-05-10T20:17:18;13.80;;;5.63;;
33148;SDS011;19506;51.040;3.856;2023-05-10T20:19:44;19.73;;;6.15;;
33148;SDS011;19506;51.040;3.856;2023-05-10T20:22:09;15.00;;;7.20;;
33148;SDS011;19506;51.040;3.856;2023-05-10T20:24:35;11.25;;;5.03;;
33148;SDS011;19506;51.040;3.856;2023-05-10T20:27:01;15.50;;;5.38;;
33148;SDS011;19506;51.040;3.856;2023-05-10T20:29:28;16.77;;;4.85;;
33148;SDS011;19506;51.040;3.856;2023-05-10T20:31:54;14.93;;;5.78;;
33148;SDS011;19506;51.040;3.856;2023-05-10T20:34:20;20.80;;;5.72;;
33148;SDS011;19506;51.040;3.856;2023-05-10T20:36:46;13.80;;;6.32;;
33148;SDS011;19506;51.040;3.856;2023-05-10T20:39:12;26.30;;;6.53;;
33148;SDS011;19506;51.040;3.856;2023-05-10T20:41:39;19.77;;;6.28;;
33148;SDS011;19506;51.040;3.856;2023-05-10T20:44:04;17.88;;;5.53;;
33148;SDS011;19506;51.040;3.856;2023-05-10T20:46:30;19.30;;;5.55;;
33148;SDS011;19506;51.040;3.856;2023-05-10T20:48:56;16.35;;;6.05;;
33148;SDS011;19506;51.040;3.856;2023-05-10T20:51:22;18.23;;;6.28;;
33148;SDS011;19506;51.040;3.856;2023-05-10T20:53:48;16.60;;;4.82;;
33148;SDS011;19506;51.040;3.856;2023-05-10T20:56:14;13.60;;;5.55;;
33148;SDS011;19506;51.040;3.856;2023-05-10T20:58:39;19.42;;;5.47;;
33148;SDS011;19506;51.040;3.856;2023-05-10T21:01:05;12.80;;;4.70;;
33148;SDS011;19506;51.040;3.856;2023-05-10T21:03:31;14.55;;;5.72;;
33148;SDS011;19506;51.040;3.856;2023-05-10T21:05:56;14.73;;;5.30;;
33148;SDS011;19506;51.040;3.856;2023-05-10T21:08:22;15.75;;;6.28;;
33148;SDS011;19506;51.040;3.856;2023-05-10T21:10:48;17.33;;;4.80;;
33148;SDS011;19506;51.040;3.856;2023-05-10T21:13:13;10.10;;;5.28;;
33148;SDS011;19506;51.040;3.856;2023-05-10T21:15:39;13.07;;;5.88;;
33148;SDS011;19506;51.040;3.856;2023-05-10T21:18:05;16.63;;;4.82;;
33148;SDS011;19506;51.040;3.856;2023-05-10T21:20:30;13.38;;;5.35;;
33148;SDS011;19506;51.040;3.856;2023-05-10T21:22:56;12.93;;;4.90;;
33148;SDS011;19506;51.040;3.856;2023-05-10T21:25:22;11.90;;;4.88;;
33148;SDS011;19506;51.040;3.856;2023-05-10T21:27:48;9.52;;;4.78;;
33148;SDS011;19506;51.040;3.856;2023-05-10T21:30:13;15.07;;;5.10;;
33148;SDS011;19506;51.040;3.856;2023-05-10T21:32:39;14.30;;;5.78;;
33148;SDS011;19506;51.040;3.856;2023-05-10T21:35:05;16.95;;;5.13;;
33148;SDS011;19506;51.040;3.856;2023-05-10T21:37:31;15.80;;;5.38;;
33148;SDS011;19506;51.040;3.856;2023-05-10T21:39:56;15.18;;;5.00;;
33148;SDS011;19506;51.040;3.856;2023-05-10T21:42:22;12.77;;;5.05;;
33148;SDS011;19506;51.040;3.856;2023-05-10T21:44:48;12.70;;;4.85;;
33148;SDS011;19506;51.040;3.856;2023-05-10T21:47:13;10.30;;;4.65;;
33148;SDS011;19506;51.040;3.856;2023-05-10T21:49:39;7.53;;;4.13;;
33148;SDS011;19506;51.040;3.856;2023-05-10T21:52:04;11.45;;;4.82;;
33148;SDS011;19506;51.040;3.856;2023-05-10T21:54:31;11.85;;;4.72;;
33148;SDS011;19506;51.040;3.856;2023-05-10T21:56:56;11.75;;;4.80;;
33148;SDS011;19506;51.040;3.856;2023-05-10T21:59:22;14.43;;;4.57;;
33148;SDS011;19506;51.040;3.856;2023-05-10T22:01:48;11.55;;;4.85;;
33148;SDS011;19506;51.040;3.856;2023-05-10T22:04:16;12.13;;;4.32;;
33148;SDS011;19506;51.040;3.856;2023-05-10T22:06:41;10.95;;;3.85;;
33148;SDS011;19506;51.040;3.856;2023-05-10T22:09:07;8.77;;;4.85;;
33148;SDS011;19506;51.040;3.856;2023-05-10T22:11:34;10.30;;;4.43;;
33148;SDS011;19506;51.040;3.856;2023-05-10T22:13:59;8.35;;;4.03;;
33148;SDS011;19506;51.040;3.856;2023-05-10T22:16:25;13.32;;;4.45;;
33148;SDS011;19506;51.040;3.856;2023-05-10T22:18:51;13.18;;;4.82;;
33148;SDS011;19506;51.040;3.856;2023-05-10T22:21:18;10.02;;;4.45;;
33148;SDS011;19506;51.040;3.856;2023-05-10T22:23:44;11.63;;;4.57;;
33148;SDS011;19506;51.040;3.856;2023-05-10T22:26:09;12.57;;;4.25;;
33148;SDS011;19506;51.040;3.856;2023-05-10T22:28:35;13.52;;;4.80;;
33148;SDS011;19506;51.040;3.856;2023-05-10T22:31:01;13.48;;;4.72;;
33148;SDS011;19506;51.040;3.856;2023-05-10T22:33:27;14.77;;;4.82;;
33148;SDS011;19506;51.040;3.856;2023-05-10T22:35:53;11.90;;;4.50;;
33148;SDS011;19506;51.040;3.856;2023-05-10T22:38:18;11.32;;;4.55;;
33148;SDS011;19506;51.040;3.856;2023-05-10T22:40:44;11.02;;;5.28;;
33148;SDS011;19506;51.040;3.856;2023-05-10T22:43:10;11.57;;;5.20;;
33148;SDS011;19506;51.040;3.856;2023-05-10T22:45:35;14.93;;;4.40;;
33148;SDS011;19506;51.040;3.856;2023-05-10T22:48:02;9.50;;;4.72;;
33148;SDS011;19506;51.040;3.856;2023-05-10T22:50:29;10.85;;;4.65;;
33148;SDS011;19506;51.040;3.856;2023-05-10T22:52:55;7.95;;;3.90;;
33148;SDS011;19506;51.040;3.856;2023-05-10T22:55:21;10.40;;;4.93;;
33148;SDS011;19506;51.040;3.856;2023-05-10T22:57:47;9.15;;;4.25;;
33148;SDS011;19506;51.040;3.856;2023-05-10T23:00:12;12.88;;;4.10;;
33148;SDS011;19506;51.040;3.856;2023-05-10T23:02:39;7.45;;;3.95;;
33148;SDS011;19506;51.040;3.856;2023-05-10T23:05:04;13.50;;;5.00;;
33148;SDS011;19506;51.040;3.856;2023-05-10T23:07:31;14.32;;;4.63;;
33148;SDS011;19506;51.040;3.856;2023-05-10T23:09:56;8.23;;;4.32;;
33148;SDS011;19506;51.040;3.856;2023-05-10T23:12:22;12.15;;;4.13;;
33148;SDS011;19506;51.040;3.856;2023-05-10T23:14:48;12.55;;;5.25;;
33148;SDS011;19506;51.040;3.856;2023-05-10T23:17:14;11.70;;;4.80;;
